sensor_id;sensor_type;location;lat;lon;timestamp;pressure;altitude;pressure_sealevel;temperature
18713;BMP280;9485;49.386;8.674;2022-12-29T00:04:05;99900.44;;;14.15
18713;BMP280;9485;49.386;8.674;2022-12-29T00:09:27;99911.00;;;14.20
18713;BMP280;9485;49.386;8.674;2022-12-29T00:14:48;99897.25;;;14.24
18713;BMP280;9485;49.386;8.674;2022-12-29T00:20:26;99895.09;;;14.29
18713;BMP280;9485;49.386;8.674;2022-12-29T00:26:13;99894.03;;;14.32
18713;BMP280;9485;49.386;8.674;2022-12-29T00:31:53;99884.97;;;14.34
18713;BMP280;9485;49.386;8.674;2022-12-29T00:37:47;99885.78;;;14.34
18713;BMP280;9485;49.386;8.674;2022-12-29T00:43:28;99894.03;;;14.32
18713;BMP280;9485;49.386;8.674;2022-12-29T00:49:08;99892.56;;;14.26
18713;BMP280;9485;49.386;8.674;2022-12-29T00:54:47;99885.63;;;14.22
18713;BMP280;9485;49.386;8.674;2022-12-29T01:00:11;99896.00;;;14.19
18713;BMP280;9485;49.386;8.674;2022-12-29T01:05:36;99908.94;;;14.15
18713;BMP280;9485;49.386;8.674;2022-12-29T01:11:00;99903.28;;;14.15
18713;BMP280;9485;49.386;8.674;2022-12-29T01:16:22;99911.03;;;14.14
18713;BMP280;9485;49.386;8.674;2022-12-29T01:21:42;99904.06;;;14.15
18713;BMP280;9485;49.386;8.674;2022-12-29T01:27:03;99907.59;;;14.21
18713;BMP280;9485;49.386;8.674;2022-12-29T01:32:25;99919.06;;;14.34
18713;BMP280;9485;49.386;8.674;2022-12-29T01:37:46;99910.13;;;14.48
18713;BMP280;9485;49.386;8.674;2022-12-29T01:43:08;99912.81;;;14.59
18713;BMP280;9485;49.386;8.674;2022-12-29T01:48:32;99906.53;;;14.66
18713;BMP280;9485;49.386;8.674;2022-12-29T01:53:55;99900.47;;;14.75
18713;BMP280;9485;49.386;8.674;2022-12-29T01:59:22;99907.59;;;14.82
18713;BMP280;9485;49.386;8.674;2022-12-29T02:04:47;99899.94;;;14.77
18713;BMP280;9485;49.386;8.674;2022-12-29T02:10:10;99899.97;;;14.34
18713;BMP280;9485;49.386;8.674;2022-12-29T02:15:51;99897.41;;;14.07
18713;BMP280;9485;49.386;8.674;2022-12-29T02:21:48;99885.88;;;14.00
18713;BMP280;9485;49.386;8.674;2022-12-29T02:27:48;99889.44;;;14.06
18713;BMP280;9485;49.386;8.674;2022-12-29T02:33:26;99895.31;;;14.13
18713;BMP280;9485;49.386;8.674;2022-12-29T02:38:59;99904.53;;;14.19
18713;BMP280;9485;49.386;8.674;2022-12-29T02:44:34;99892.06;;;14.27
18713;BMP280;9485;49.386;8.674;2022-12-29T02:50:03;99879.75;;;14.20
18713;BMP280;9485;49.386;8.674;2022-12-29T02:55:27;99875.44;;;14.13
18713;BMP280;9485;49.386;8.674;2022-12-29T03:01:03;99873.59;;;14.16
18713;BMP280;9485;49.386;8.674;2022-12-29T03:06:39;99868.91;;;14.18
18713;BMP280;9485;49.386;8.674;2022-12-29T03:12:14;99866.31;;;14.20
18713;BMP280;9485;49.386;8.674;2022-12-29T03:17:54;99859.56;;;14.23
18713;BMP280;9485;49.386;8.674;2022-12-29T03:23:17;99850.75;;;14.27
18713;BMP280;9485;49.386;8.674;2022-12-29T03:28:46;99847.63;;;14.30
18713;BMP280;9485;49.386;8.674;2022-12-29T03:34:14;99832.63;;;14.29
18713;BMP280;9485;49.386;8.674;2022-12-29T03:39:37;99821.81;;;14.28
18713;BMP280;9485;49.386;8.674;2022-12-29T03:44:58;99818.72;;;14.26
18713;BMP280;9485;49.386;8.674;2022-12-29T03:50:19;99805.31;;;14.27
18713;BMP280;9485;49.386;8.674;2022-12-29T03:55:43;99796.81;;;14.27
18713;BMP280;9485;49.386;8.674;2022-12-29T04:01:04;99789.53;;;14.31
18713;BMP280;9485;49.386;8.674;2022-12-29T04:06:27;99776.81;;;14.32
18713;BMP280;9485;49.386;8.674;2022-12-29T04:11:56;99775.53;;;14.33
18713;BMP280;9485;49.386;8.674;2022-12-29T04:17:16;99778.38;;;14.33
18713;BMP280;9485;49.386;8.674;2022-12-29T04:22:39;99774.22;;;14.34
18713;BMP280;9485;49.386;8.674;2022-12-29T04:28:01;99778.00;;;14.42
18713;BMP280;9485;49.386;8.674;2022-12-29T04:33:40;99771.44;;;14.47
18713;BMP280;9485;49.386;8.674;2022-12-29T04:39:01;99779.16;;;14.52
18713;BMP280;9485;49.386;8.674;2022-12-29T04:44:27;99762.53;;;14.56
18713;BMP280;9485;49.386;8.674;2022-12-29T04:49:47;99762.53;;;14.56
18713;BMP280;9485;49.386;8.674;2022-12-29T04:55:26;99768.91;;;14.62
18713;BMP280;9485;49.386;8.674;2022-12-29T05:00:49;99773.22;;;14.68
18713;BMP280;9485;49.386;8.674;2022-12-29T05:06:10;99775.94;;;14.74
18713;BMP280;9485;49.386;8.674;2022-12-29T05:11:31;99792.31;;;14.68
18713;BMP280;9485;49.386;8.674;2022-12-29T05:16:53;99788.19;;;14.69
18713;BMP280;9485;49.386;8.674;2022-12-29T05:22:14;99789.41;;;14.73
18713;BMP280;9485;49.386;8.674;2022-12-29T05:27:37;99774.34;;;14.78
18713;BMP280;9485;49.386;8.674;2022-12-29T05:33:10;99782.78;;;14.84
18713;BMP280;9485;49.386;8.674;2022-12-29T05:38:33;99778.88;;;14.87
18713;BMP280;9485;49.386;8.674;2022-12-29T05:43:54;99780.06;;;14.91
18713;BMP280;9485;49.386;8.674;2022-12-29T05:49:40;99777.22;;;14.91
18713;BMP280;9485;49.386;8.674;2022-12-29T05:55:22;99773.06;;;14.92
18713;BMP280;9485;49.386;8.674;2022-12-29T06:00:46;99770.22;;;14.92
18713;BMP280;9485;49.386;8.674;2022-12-29T06:06:09;99781.59;;;14.92
18713;BMP280;9485;49.386;8.674;2022-12-29T06:11:30;99771.78;;;14.93
18713;BMP280;9485;49.386;8.674;2022-12-29T06:16:56;99758.34;;;14.94
18713;BMP280;9485;49.386;8.674;2022-12-29T06:22:19;99749.56;;;14.92
18713;BMP280;9485;49.386;8.674;2022-12-29T06:27:40;99752.75;;;14.88
18713;BMP280;9485;49.386;8.674;2022-12-29T06:33:01;99748.34;;;14.87
18713;BMP280;9485;49.386;8.674;2022-12-29T06:38:24;99755.59;;;14.88
18713;BMP280;9485;49.386;8.674;2022-12-29T06:43:44;99747.81;;;14.89
18713;BMP280;9485;49.386;8.674;2022-12-29T06:49:21;99749.13;;;14.88
18713;BMP280;9485;49.386;8.674;2022-12-29T06:54:43;99748.59;;;14.89
18713;BMP280;9485;49.386;8.674;2022-12-29T07:00:06;99748.03;;;14.91
18713;BMP280;9485;49.386;8.674;2022-12-29T07:05:27;99743.34;;;14.93
18713;BMP280;9485;49.386;8.674;2022-12-29T07:10:49;99753.41;;;14.94
18713;BMP280;9485;49.386;8.674;2022-12-29T07:16:10;99755.19;;;14.97
18713;BMP280;9485;49.386;8.674;2022-12-29T07:21:30;99757.25;;;14.97
18713;BMP280;9485;49.386;8.674;2022-12-29T07:26:52;99757.72;;;15.01
18713;BMP280;9485;49.386;8.674;2022-12-29T07:32:13;99768.75;;;15.04
18713;BMP280;9485;49.386;8.674;2022-12-29T07:37:34;99774.13;;;15.07
18713;BMP280;9485;49.386;8.674;2022-12-29T07:42:56;99772.47;;;15.12
18713;BMP280;9485;49.386;8.674;2022-12-29T07:48:27;99774.25;;;15.15
18713;BMP280;9485;49.386;8.674;2022-12-29T07:53:47;99769.00;;;15.19
18713;BMP280;9485;49.386;8.674;2022-12-29T07:59:09;99773.59;;;15.22
18713;BMP280;9485;49.386;8.674;2022-12-29T08:04:31;99776.38;;;15.27
18713;BMP280;9485;49.386;8.674;2022-12-29T08:09:52;99790.06;;;15.29
18713;BMP280;9485;49.386;8.674;2022-12-29T08:15:14;99788.66;;;15.35
18713;BMP280;9485;49.386;8.674;2022-12-29T08:20:35;99790.63;;;15.40
18713;BMP280;9485;49.386;8.674;2022-12-29T08:25:59;99806.06;;;15.45
18713;BMP280;9485;49.386;8.674;2022-12-29T08:31:22;99819.75;;;15.46
18713;BMP280;9485;49.386;8.674;2022-12-29T08:36:42;99821.06;;;15.45
18713;BMP280;9485;49.386;8.674;2022-12-29T08:42:04;99828.50;;;15.48
18713;BMP280;9485;49.386;8.674;2022-12-29T08:47:27;99827.22;;;15.49
18713;BMP280;9485;49.386;8.674;2022-12-29T08:52:47;99833.34;;;15.53
18713;BMP280;9485;49.386;8.674;2022-12-29T08:58:08;99825.69;;;15.61
18713;BMP280;9485;49.386;8.674;2022-12-29T09:03:35;99812.69;;;15.66
18713;BMP280;9485;49.386;8.674;2022-12-29T09:08:55;99831.06;;;15.65
18713;BMP280;9485;49.386;8.674;2022-12-29T09:14:17;99822.75;;;15.67
18713;BMP280;9485;49.386;8.674;2022-12-29T09:19:39;99830.31;;;15.64
18713;BMP280;9485;49.386;8.674;2022-12-29T09:24:59;99837.63;;;15.60
18713;BMP280;9485;49.386;8.674;2022-12-29T09:30:22;99839.16;;;15.61
18713;BMP280;9485;49.386;8.674;2022-12-29T09:35:49;99842.09;;;15.55
18713;BMP280;9485;49.386;8.674;2022-12-29T09:41:18;99865.91;;;15.39
18713;BMP280;9485;49.386;8.674;2022-12-29T09:46:45;99871.38;;;15.37
18713;BMP280;9485;49.386;8.674;2022-12-29T09:52:16;99864.69;;;15.35
18713;BMP280;9485;49.386;8.674;2022-12-29T09:57:45;99883.25;;;15.23
18713;BMP280;9485;49.386;8.674;2022-12-29T10:03:15;99887.56;;;14.93
18713;BMP280;9485;49.386;8.674;2022-12-29T10:08:44;99889.16;;;14.70
18713;BMP280;9485;49.386;8.674;2022-12-29T10:14:32;99887.50;;;14.61
18713;BMP280;9485;49.386;8.674;2022-12-29T10:20:27;99886.88;;;14.68
18713;BMP280;9485;49.386;8.674;2022-12-29T10:25:56;99881.34;;;14.76
18713;BMP280;9485;49.386;8.674;2022-12-29T10:31:21;99889.41;;;14.90
18713;BMP280;9485;49.386;8.674;2022-12-29T10:36:47;99886.63;;;15.03
18713;BMP280;9485;49.386;8.674;2022-12-29T10:42:20;99887.69;;;15.18
18713;BMP280;9485;49.386;8.674;2022-12-29T10:47:56;99904.06;;;15.31
18713;BMP280;9485;49.386;8.674;2022-12-29T10:53:23;99885.50;;;15.43
18713;BMP280;9485;49.386;8.674;2022-12-29T10:58:51;99891.53;;;15.52
18713;BMP280;9485;49.386;8.674;2022-12-29T11:04:40;99886.00;;;15.60
18713;BMP280;9485;49.386;8.674;2022-12-29T11:10:21;99893.03;;;15.72
18713;BMP280;9485;49.386;8.674;2022-12-29T11:18:50;99890.34;;;16.05
18713;BMP280;9485;49.386;8.674;2022-12-29T11:24:21;99901.09;;;16.12
18713;BMP280;9485;49.386;8.674;2022-12-29T11:29:44;99901.97;;;16.20
18713;BMP280;9485;49.386;8.674;2022-12-29T11:35:32;99894.53;;;16.30
18713;BMP280;9485;49.386;8.674;2022-12-29T11:40:53;99909.34;;;16.28
18713;BMP280;9485;49.386;8.674;2022-12-29T11:46:17;99888.84;;;16.30
18713;BMP280;9485;49.386;8.674;2022-12-29T11:51:46;99896.38;;;16.27
18713;BMP280;9485;49.386;8.674;2022-12-29T11:57:11;99892.31;;;16.23
18713;BMP280;9485;49.386;8.674;2022-12-29T12:02:41;99899.22;;;16.14
18713;BMP280;9485;49.386;8.674;2022-12-29T12:08:11;99888.50;;;16.07
18713;BMP280;9485;49.386;8.674;2022-12-29T12:13:39;99887.84;;;16.01
18713;BMP280;9485;49.386;8.674;2022-12-29T12:19:13;99880.81;;;16.02
18713;BMP280;9485;49.386;8.674;2022-12-29T12:24:41;99872.28;;;16.02
18713;BMP280;9485;49.386;8.674;2022-12-29T12:30:11;99876.63;;;16.03
18713;BMP280;9485;49.386;8.674;2022-12-29T12:35:44;99871.28;;;16.00
18713;BMP280;9485;49.386;8.674;2022-12-29T12:41:16;99860.09;;;16.02
18713;BMP280;9485;49.386;8.674;2022-12-29T12:47:01;99868.88;;;16.04
18713;BMP280;9485;49.386;8.674;2022-12-29T12:52:33;99866.25;;;16.06
18713;BMP280;9485;49.386;8.674;2022-12-29T12:58:09;99861.63;;;15.90
18713;BMP280;9485;49.386;8.674;2022-12-29T13:03:48;99868.25;;;15.54
18713;BMP280;9485;49.386;8.674;2022-12-29T13:09:30;99867.25;;;15.01
18713;BMP280;9485;49.386;8.674;2022-12-29T13:15:11;99890.31;;;14.43
18713;BMP280;9485;49.386;8.674;2022-12-29T13:20:43;99865.53;;;13.96
18713;BMP280;9485;49.386;8.674;2022-12-29T13:26:17;99870.03;;;13.86
18713;BMP280;9485;49.386;8.674;2022-12-29T13:31:50;99852.34;;;13.74
18713;BMP280;9485;49.386;8.674;2022-12-29T13:37:16;99867.88;;;13.68
18713;BMP280;9485;49.386;8.674;2022-12-29T13:42:39;99868.75;;;13.57
18713;BMP280;9485;49.386;8.674;2022-12-29T13:48:09;99855.94;;;13.51
18713;BMP280;9485;49.386;8.674;2022-12-29T13:53:42;99861.91;;;13.48
18713;BMP280;9485;49.386;8.674;2022-12-29T13:59:19;99861.66;;;13.46
18713;BMP280;9485;49.386;8.674;2022-12-29T14:04:57;99876.38;;;13.44
18713;BMP280;9485;49.386;8.674;2022-12-29T14:10:29;99865.06;;;13.39
18713;BMP280;9485;49.386;8.674;2022-12-29T14:15:55;99881.13;;;13.31
18713;BMP280;9485;49.386;8.674;2022-12-29T14:21:22;99884.19;;;13.33
18713;BMP280;9485;49.386;8.674;2022-12-29T14:26:47;99877.47;;;13.36
18713;BMP280;9485;49.386;8.674;2022-12-29T14:32:36;99889.59;;;13.36
18713;BMP280;9485;49.386;8.674;2022-12-29T14:44:18;99913.47;;;13.11
18713;BMP280;9485;49.386;8.674;2022-12-29T14:49:42;99912.78;;;13.00
18713;BMP280;9485;49.386;8.674;2022-12-29T14:55:36;99918.00;;;12.85
18713;BMP280;9485;49.386;8.674;2022-12-29T15:01:00;99920.44;;;12.65
18713;BMP280;9485;49.386;8.674;2022-12-29T15:06:29;99934.94;;;12.45
18713;BMP280;9485;49.386;8.674;2022-12-29T15:11:57;99936.75;;;12.42
18713;BMP280;9485;49.386;8.674;2022-12-29T15:17:26;99934.94;;;12.34
18713;BMP280;9485;49.386;8.674;2022-12-29T15:22:53;99908.19;;;12.35
18713;BMP280;9485;49.386;8.674;2022-12-29T15:28:15;99917.47;;;12.30
18713;BMP280;9485;49.386;8.674;2022-12-29T15:33:41;99939.63;;;12.26
18713;BMP280;9485;49.386;8.674;2022-12-29T15:39:18;99945.56;;;12.22
18713;BMP280;9485;49.386;8.674;2022-12-29T15:44:43;99957.13;;;12.24
18713;BMP280;9485;49.386;8.674;2022-12-29T15:50:21;99951.72;;;12.21
18713;BMP280;9485;49.386;8.674;2022-12-29T15:55:43;99975.16;;;12.10
18713;BMP280;9485;49.386;8.674;2022-12-29T16:01:18;99974.66;;;12.01
18713;BMP280;9485;49.386;8.674;2022-12-29T16:06:54;99981.63;;;11.95
18713;BMP280;9485;49.386;8.674;2022-12-29T16:12:19;99973.66;;;11.88
18713;BMP280;9485;49.386;8.674;2022-12-29T16:17:47;99989.09;;;11.87
18713;BMP280;9485;49.386;8.674;2022-12-29T16:23:20;99993.47;;;11.88
18713;BMP280;9485;49.386;8.674;2022-12-29T16:28:41;99986.00;;;11.90
18713;BMP280;9485;49.386;8.674;2022-12-29T16:34:24;99975.44;;;11.91
18713;BMP280;9485;49.386;8.674;2022-12-29T16:39:45;99988.31;;;11.92
18713;BMP280;9485;49.386;8.674;2022-12-29T16:51:33;100013.25;;;11.98
18713;BMP280;9485;49.386;8.674;2022-12-29T16:56:56;100010.16;;;12.02
18713;BMP280;9485;49.386;8.674;2022-12-29T17:02:20;100014.03;;;12.04
18713;BMP280;9485;49.386;8.674;2022-12-29T17:07:45;100037.44;;;12.05
18713;BMP280;9485;49.386;8.674;2022-12-29T17:13:07;100022.25;;;12.02
18713;BMP280;9485;49.386;8.674;2022-12-29T17:18:27;100016.59;;;12.02
18713;BMP280;9485;49.386;8.674;2022-12-29T17:23:49;100027.66;;;12.00
18713;BMP280;9485;49.386;8.674;2022-12-29T17:29:19;100036.41;;;11.97
18713;BMP280;9485;49.386;8.674;2022-12-29T17:34:41;100042.56;;;11.96
18713;BMP280;9485;49.386;8.674;2022-12-29T17:40:07;100019.69;;;11.94
18713;BMP280;9485;49.386;8.674;2022-12-29T17:45:32;100021.75;;;11.88
18713;BMP280;9485;49.386;8.674;2022-12-29T17:50:55;100040.25;;;11.89
18713;BMP280;9485;49.386;8.674;2022-12-29T17:56:18;100042.06;;;11.92
18713;BMP280;9485;49.386;8.674;2022-12-29T18:01:39;100044.63;;;11.90
18713;BMP280;9485;49.386;8.674;2022-12-29T18:06:59;100059.56;;;11.90
18713;BMP280;9485;49.386;8.674;2022-12-29T18:12:29;100060.84;;;11.84
18713;BMP280;9485;49.386;8.674;2022-12-29T18:17:57;100019.44;;;11.75
18713;BMP280;9485;49.386;8.674;2022-12-29T18:23:21;99981.38;;;11.65
18713;BMP280;9485;49.386;8.674;2022-12-29T18:28:43;100028.16;;;11.66
18713;BMP280;9485;49.386;8.674;2022-12-29T18:34:13;100024.81;;;11.68
18713;BMP280;9485;49.386;8.674;2022-12-29T18:39:34;100026.38;;;11.58
18713;BMP280;9485;49.386;8.674;2022-12-29T18:44:57;100029.66;;;11.51
18713;BMP280;9485;49.386;8.674;2022-12-29T18:50:18;100029.41;;;11.49
18713;BMP280;9485;49.386;8.674;2022-12-29T18:55:39;100021.44;;;11.47
18713;BMP280;9485;49.386;8.674;2022-12-29T19:01:01;100021.44;;;11.42
18713;BMP280;9485;49.386;8.674;2022-12-29T19:06:22;100020.66;;;11.41
18713;BMP280;9485;49.386;8.674;2022-12-29T19:11:42;100031.47;;;11.43
18713;BMP280;9485;49.386;8.674;2022-12-29T19:17:09;100023.72;;;11.43
18713;BMP280;9485;49.386;8.674;2022-12-29T19:22:30;100030.69;;;11.42
18713;BMP280;9485;49.386;8.674;2022-12-29T19:27:51;100034.00;;;11.41
18713;BMP280;9485;49.386;8.674;2022-12-29T19:33:14;100028.88;;;11.39
18713;BMP280;9485;49.386;8.674;2022-12-29T19:38:35;100030.16;;;11.38
18713;BMP280;9485;49.386;8.674;2022-12-29T19:43:55;100020.41;;;11.39
18713;BMP280;9485;49.386;8.674;2022-12-29T19:49:17;100040.94;;;11.40
18713;BMP280;9485;49.386;8.674;2022-12-29T19:54:38;100040.94;;;11.40
18713;BMP280;9485;49.386;8.674;2022-12-29T19:59:58;100052.53;;;11.42
18713;BMP280;9485;49.386;8.674;2022-12-29T20:05:20;100045.84;;;11.45
18713;BMP280;9485;49.386;8.674;2022-12-29T20:10:41;100058.19;;;11.47
18713;BMP280;9485;49.386;8.674;2022-12-29T20:16:04;100060.50;;;11.49
18713;BMP280;9485;49.386;8.674;2022-12-29T20:21:27;100069.00;;;11.49
18713;BMP280;9485;49.386;8.674;2022-12-29T20:26:47;100076.44;;;11.46
18713;BMP280;9485;49.386;8.674;2022-12-29T20:32:10;100092.66;;;11.46
18713;BMP280;9485;49.386;8.674;2022-12-29T20:37:32;100101.13;;;11.46
18713;BMP280;9485;49.386;8.674;2022-12-29T20:42:52;100110.38;;;11.46
18713;BMP280;9485;49.386;8.674;2022-12-29T20:48:12;100103.16;;;11.45
18713;BMP280;9485;49.386;8.674;2022-12-29T20:53:37;100100.31;;;11.40
18713;BMP280;9485;49.386;8.674;2022-12-29T20:58:57;100098.03;;;11.44
18713;BMP280;9485;49.386;8.674;2022-12-29T21:04:18;100091.09;;;11.45
18713;BMP280;9485;49.386;8.674;2022-12-29T21:09:40;100094.69;;;11.45
18713;BMP280;9485;49.386;8.674;2022-12-29T21:15:01;100115.25;;;11.46
18713;BMP280;9485;49.386;8.674;2022-12-29T21:20:22;100124.50;;;11.46
18713;BMP280;9485;49.386;8.674;2022-12-29T21:25:51;100113.72;;;11.45
18713;BMP280;9485;49.386;8.674;2022-12-29T21:31:24;100120.38;;;11.42
18713;BMP280;9485;49.386;8.674;2022-12-29T21:36:45;100125.00;;;11.39
18713;BMP280;9485;49.386;8.674;2022-12-29T21:42:06;100133.19;;;11.37
18713;BMP280;9485;49.386;8.674;2022-12-29T21:47:27;100140.13;;;11.36
18713;BMP280;9485;49.386;8.674;2022-12-29T21:53:08;100135.50;;;11.33
18713;BMP280;9485;49.386;8.674;2022-12-29T21:58:30;100151.69;;;11.33
18713;BMP280;9485;49.386;8.674;2022-12-29T22:04:11;100163.00;;;11.33
18713;BMP280;9485;49.386;8.674;2022-12-29T22:09:50;100168.41;;;11.31
18713;BMP280;9485;49.386;8.674;2022-12-29T22:15:31;100173.78;;;11.29
18713;BMP280;9485;49.386;8.674;2022-12-29T22:20:52;100170.44;;;11.25
18713;BMP280;9485;49.386;8.674;2022-12-29T22:26:14;100198.22;;;11.32
18713;BMP280;9485;49.386;8.674;2022-12-29T22:31:36;100195.38;;;11.32
18713;BMP280;9485;49.386;8.674;2022-12-29T22:36:57;100211.31;;;11.35
18713;BMP280;9485;49.386;8.674;2022-12-29T22:42:17;100216.47;;;11.36
18713;BMP280;9485;49.386;8.674;2022-12-29T22:47:39;100217.53;;;11.39
18713;BMP280;9485;49.386;8.674;2022-12-29T22:52:59;100240.13;;;11.39
18713;BMP280;9485;49.386;8.674;2022-12-29T22:58:20;100233.94;;;11.35
18713;BMP280;9485;49.386;8.674;2022-12-29T23:03:45;100250.63;;;11.33
18713;BMP280;9485;49.386;8.674;2022-12-29T23:09:09;100262.94;;;11.30
18713;BMP280;9485;49.386;8.674;2022-12-29T23:14:34;100259.84;;;11.28
18713;BMP280;9485;49.386;8.674;2022-12-29T23:19:56;100263.94;;;11.27
18713;BMP280;9485;49.386;8.674;2022-12-29T23:25:16;100255.97;;;11.25
18713;BMP280;9485;49.386;8.674;2022-12-29T23:30:37;100261.13;;;11.27
18713;BMP280;9485;49.386;8.674;2022-12-29T23:35:59;100249.06;;;11.26
18713;BMP280;9485;49.386;8.674;2022-12-29T23:41:19;100255.97;;;11.25
18713;BMP280;9485;49.386;8.674;2022-12-29T23:46:40;100256.97;;;11.22
18713;BMP280;9485;49.386;8.674;2022-12-29T23:52:02;100264.41;;;11.20
18713;BMP280;9485;49.386;8.674;2022-12-29T23:57:23;100274.72;;;11.23
